Time;durP1;ratioP1;P1;durP2;ratioP2;P2;SDS_P1;SDS_P2;PMS_P1;PMS_P2;Temp;Humidity;BMP_temperature;BMP_pressure;BME280_temperature;BME280_humidity;BME280_pressure;Samples;Min_cycle;Max_cycle;Signal;HPM_P1;HPM_P2
2022/01/06 00:00:48;;;;;;;4.82;1.52;;;18.10;54.40;;;;;;5044213;28;47313;-85
2022/01/06 00:03:18;;;;;;;3.50;1.17;;;18.10;53.50;;;;;;5046717;28;45643;-86
2022/01/06 00:05:45;;;;;;;1.88;1.05;;;18.10;54.00;;;;;;5051965;28;45181;-86
2022/01/06 00:08:12;;;;;;;2.40;1.20;;;18.10;53.60;;;;;;5052321;28;45270;-88
2022/01/06 00:10:46;;;;;;;2.83;1.20;;;18.10;54.00;;;;;;5037027;28;47012;-88
2022/01/06 00:13:21;;;;;;;3.13;1.52;;;18.10;53.40;;;;;;5038462;28;45509;-87
2022/01/06 00:16:03;;;;;;;3.78;1.70;;;18.10;53.30;;;;;;5045948;28;45518;-86
2022/01/06 00:24:02;;;;;;;2.88;1.35;;;18.20;54.80;;;;;;5045045;28;45247;-86
2022/01/06 00:26:29;;;;;;;3.20;1.45;;;18.10;54.70;;;;;;5048388;28;45335;-86
2022/01/06 00:28:58;;;;;;;2.25;1.10;;;18.20;54.60;;;;;;5052300;28;44982;-87
2022/01/06 00:31:25;;;;;;;3.08;1.20;;;18.20;54.10;;;;;;5041501;28;47426;-86
2022/01/06 00:33:54;;;;;;;4.22;1.50;;;18.20;54.70;;;;;;5048407;28;45180;-87
2022/01/06 00:36:21;;;;;;;2.08;1.10;;;18.20;54.10;;;;;;5043829;28;45394;-86
2022/01/06 00:38:51;;;;;;;2.75;1.25;;;18.10;53.50;;;;;;5054524;28;45046;-87
2022/01/06 00:41:19;;;;;;;2.38;1.08;;;18.10;54.30;;;;;;5041621;28;48790;-88
2022/01/06 00:44:01;;;;;;;2.53;1.25;;;18.20;54.80;;;;;;5044286;28;45181;-87
2022/01/06 00:46:36;;;;;;;2.33;1.08;;;18.20;55.40;;;;;;5038241;28;45317;-87
2022/01/06 00:49:03;;;;;;;2.67;1.00;;;18.20;55.10;;;;;;5041854;28;45285;-86
2022/01/06 00:51:36;;;;;;;2.28;0.90;;;18.20;54.70;;;;;;5056393;28;47040;-89
2022/01/06 00:54:04;;;;;;;3.13;1.27;;;18.20;54.80;;;;;;5046581;28;45334;-88
2022/01/06 00:56:32;;;;;;;2.90;1.13;;;18.20;55.00;;;;;;5022358;28;44901;-87
2022/01/06 00:59:00;;;;;;;4.30;1.10;;;18.20;55.10;;;;;;5048412;28;45054;-86
2022/01/06 01:01:36;;;;;;;2.35;1.08;;;18.20;55.60;;;;;;5043889;28;47394;-87
2022/01/06 01:04:06;;;;;;;1.33;0.90;;;18.20;55.90;;;;;;5047982;28;45215;-87
2022/01/06 01:06:35;;;;;;;2.25;1.13;;;18.20;56.00;;;;;;5038167;28;45211;-87
2022/01/06 01:09:04;;;;;;;3.45;1.40;;;18.30;56.50;;;;;;5043629;28;45272;-87
2022/01/06 01:11:33;;;;;;;3.72;1.10;;;18.30;56.60;;;;;;5038700;28;47327;-87
2022/01/06 01:14:17;;;;;;;3.08;1.05;;;18.30;56.40;;;;;;5029646;28;45263;-87
2022/01/06 01:16:54;;;;;;;2.97;1.13;;;18.30;56.60;;;;;;5043884;28;45206;-87
2022/01/06 01:19:21;;;;;;;2.22;0.85;;;18.30;56.30;;;;;;5038138;28;45122;-87
2022/01/06 01:21:49;;;;;;;2.00;0.93;;;18.30;56.40;;;;;;5037806;28;47433;-88
2022/01/06 01:24:17;;;;;;;2.45;0.88;;;18.30;56.60;;;;;;5046904;28;45295;-87
2022/01/06 01:26:45;;;;;;;3.13;1.20;;;18.30;56.50;;;;;;5047788;28;45250;-88
2022/01/06 01:29:16;;;;;;;2.25;1.00;;;18.20;55.90;;;;;;5025175;28;45475;-87
2022/01/06 01:31:51;;;;;;;2.15;1.00;;;18.20;55.50;;;;;;5058344;28;46147;-87
2022/01/06 01:34:23;;;;;;;2.15;0.95;;;18.20;55.80;;;;;;5044951;28;45232;-86
2022/01/06 01:36:58;;;;;;;3.22;1.33;;;18.20;56.20;;;;;;5060103;28;44767;-87
2022/01/06 01:39:26;;;;;;;2.55;0.90;;;18.20;56.10;;;;;;5051171;28;45216;-86
2022/01/06 01:41:54;;;;;;;2.45;1.20;;;18.20;56.30;;;;;;5022992;28;47510;-86
2022/01/06 01:44:22;;;;;;;2.10;1.00;;;18.20;55.30;;;;;;5040965;28;45586;-87
2022/01/06 01:47:00;;;;;;;2.70;0.98;;;18.20;54.80;;;;;;5051538;28;45145;-87
2022/01/06 01:49:44;;;;;;;4.22;1.20;;;18.20;54.80;;;;;;5044283;28;45482;-87
2022/01/06 01:52:13;;;;;;;1.83;0.80;;;18.20;55.50;;;;;;5047420;28;46910;-87
2022/01/06 01:54:42;;;;;;;2.05;0.98;;;18.20;55.40;;;;;;5040184;28;45078;-86
2022/01/06 01:57:11;;;;;;;5.05;1.05;;;18.20;55.10;;;;;;5040492;28;45473;-86
2022/01/06 01:59:39;;;;;;;1.80;0.90;;;18.20;54.90;;;;;;5054965;28;45179;-87
2022/01/06 02:02:14;;;;;;;3.47;1.00;;;18.20;54.90;;;;;;5053759;28;45188;-87
2022/01/06 02:04:42;;;;;;;2.55;1.00;;;18.20;54.90;;;;;;5047448;28;45214;-87
2022/01/06 02:07:11;;;;;;;1.63;0.88;;;18.20;55.00;;;;;;5062656;28;45290;-87
2022/01/06 02:09:40;;;;;;;2.67;1.10;;;18.20;54.80;;;;;;5043340;28;45252;-87
2022/01/06 02:12:11;;;;;;;1.73;0.90;;;18.20;53.70;;;;;;5055853;28;47519;-87
2022/01/06 02:14:43;;;;;;;2.30;0.90;;;18.10;52.90;;;;;;5043531;28;45039;-87
2022/01/06 02:17:15;;;;;;;4.20;1.17;;;18.10;52.70;;;;;;5043175;28;45184;-87
2022/01/06 02:19:59;;;;;;;2.72;0.93;;;18.10;52.30;;;;;;5050883;28;44810;-87
2022/01/06 02:25:13;;;;;;;2.45;1.08;;;18.10;52.30;;;;;;5052049;28;45299;-88
2022/01/06 02:27:42;;;;;;;2.58;1.30;;;18.10;52.30;;;;;;5047213;28;45374;-87
2022/01/06 02:30:11;;;;;;;1.77;0.90;;;18.10;52.30;;;;;;5058569;28;45304;-86
2022/01/06 02:32:39;;;;;;;2.78;1.10;;;18.10;52.30;;;;;;5036479;28;46597;-86
2022/01/06 02:35:11;;;;;;;2.33;0.82;;;18.10;52.30;;;;;;5045012;28;45473;-87
2022/01/06 02:37:38;;;;;;;2.92;1.10;;;18.10;52.30;;;;;;5052065;28;45626;-87
2022/01/06 02:40:11;;;;;;;2.42;1.08;;;18.10;52.90;;;;;;5057469;28;45324;-87
2022/01/06 02:42:45;;;;;;;3.80;1.25;;;18.10;52.80;;;;;;5054256;28;47300;-87
2022/01/06 02:45:13;;;;;;;2.42;1.02;;;18.10;53.10;;;;;;5044006;28;46171;-87
2022/01/06 02:47:41;;;;;;;4.05;1.17;;;18.10;52.80;;;;;;5047209;28;45339;-87
2022/01/06 02:50:17;;;;;;;3.05;1.00;;;18.10;53.10;;;;;;5056120;28;45366;-86
2022/01/06 02:52:46;;;;;;;3.53;1.10;;;18.10;53.10;;;;;;5034858;28;45168;-87
2022/01/06 02:55:22;;;;;;;4.20;1.23;;;18.10;52.90;;;;;;5053673;28;45624;-87
2022/01/06 02:57:49;;;;;;;3.95;1.27;;;18.10;52.40;;;;;;5047070;28;45210;-86
2022/01/06 03:00:18;;;;;;;3.90;1.40;;;18.10;52.30;;;;;;5048667;28;45261;-86
2022/01/06 03:02:46;;;;;;;3.17;0.98;;;18.10;51.60;;;;;;5042686;28;47330;-86
2022/01/06 03:05:17;;;;;;;3.13;1.33;;;18.10;51.80;;;;;;5039543;28;45811;-86
2022/01/06 03:07:45;;;;;;;4.13;1.30;;;18.10;51.90;;;;;;5036884;28;45185;-86
2022/01/06 03:10:15;;;;;;;2.53;1.10;;;18.10;51.90;;;;;;5045331;28;45513;-87
2022/01/06 03:12:43;;;;;;;2.90;1.35;;;18.10;51.90;;;;;;5042619;28;45738;-86
2022/01/06 03:15:12;;;;;;;3.05;1.52;;;18.00;51.40;;;;;;5037520;28;45429;-86
2022/01/06 03:17:41;;;;;;;2.72;0.98;;;18.00;51.40;;;;;;5053738;28;45338;-86
2022/01/06 03:20:11;;;;;;;1.98;1.23;;;18.00;51.80;;;;;;5041448;28;45024;-86
2022/01/06 03:22:41;;;;;;;1.83;0.90;;;18.10;51.40;;;;;;5042554;28;47888;-87
2022/01/06 03:25:09;;;;;;;3.35;1.45;;;18.10;52.40;;;;;;5041358;28;45794;-87
2022/01/06 03:27:37;;;;;;;3.80;1.17;;;18.10;52.30;;;;;;5044961;28;45299;-87
2022/01/06 03:30:05;;;;;;;3.53;1.35;;;18.10;52.30;;;;;;5043996;28;45209;-86
2022/01/06 03:32:33;;;;;;;3.42;1.20;;;18.10;52.30;;;;;;5037848;28;47044;-87
2022/01/06 03:35:00;;;;;;;3.15;1.40;;;18.10;52.30;;;;;;5037671;28;45532;-86
2022/01/06 03:37:27;;;;;;;2.80;1.02;;;18.10;52.30;;;;;;5048096;28;45611;-87
2022/01/06 03:39:56;;;;;;;3.78;1.17;;;18.10;52.30;;;;;;5052520;28;45295;-87
2022/01/06 03:42:23;;;;;;;3.30;1.40;;;18.10;52.40;;;;;;5050132;28;47082;-87
2022/01/06 03:44:51;;;;;;;4.88;1.50;;;18.10;51.90;;;;;;5050689;28;45191;-86
2022/01/06 03:47:18;;;;;;;3.80;1.52;;;18.00;51.90;;;;;;5054839;28;45393;-87
2022/01/06 03:49:44;;;;;;;2.75;1.30;;;18.00;50.70;;;;;;5040371;28;45589;-86
2022/01/06 03:52:12;;;;;;;3.95;1.40;;;18.00;50.90;;;;;;5042850;28;46993;-86
2022/01/06 03:54:38;;;;;;;5.78;1.63;;;18.00;50.70;;;;;;5046071;28;45953;-86
2022/01/06 03:57:07;;;;;;;2.05;0.85;;;18.00;50.70;;;;;;5049751;28;45265;-86
2022/01/06 03:59:35;;;;;;;2.17;1.27;;;18.00;50.80;;;;;;5044245;28;45120;-86
2022/01/06 04:02:04;;;;;;;2.90;1.20;;;18.00;50.80;;;;;;5042596;28;47434;-86
2022/01/06 04:04:32;;;;;;;3.50;1.10;;;18.00;50.60;;;;;;5052034;28;45089;-86
2022/01/06 04:06:59;;;;;;;3.08;1.33;;;18.00;50.50;;;;;;5051196;28;45169;-86
2022/01/06 04:09:26;;;;;;;4.05;1.20;;;18.00;51.50;;;;;;5053754;28;45151;-85
2022/01/06 04:11:53;;;;;;;3.15;1.23;;;18.00;50.30;;;;;;5048482;28;47331;-86
2022/01/06 04:14:22;;;;;;;4.28;1.30;;;18.00;51.60;;;;;;5050447;28;45168;-86
2022/01/06 04:16:49;;;;;;;2.47;1.02;;;18.00;52.10;;;;;;5047940;28;45027;-86
2022/01/06 04:19:16;;;;;;;3.25;1.50;;;18.00;52.20;;;;;;5045197;28;45246;-86
2022/01/06 04:21:43;;;;;;;3.70;1.15;;;18.00;51.70;;;;;;5039181;28;46028;-86
2022/01/06 04:24:10;;;;;;;4.22;1.38;;;18.10;51.80;;;;;;5043047;28;45114;-86
2022/01/06 04:26:37;;;;;;;3.08;1.00;;;18.10;51.70;;;;;;5053001;28;44739;-86
2022/01/06 04:29:04;;;;;;;4.72;1.60;;;18.00;51.50;;;;;;5042442;28;45161;-86
2022/01/06 04:31:33;;;;;;;2.75;1.10;;;18.10;51.20;;;;;;5053207;28;47380;-86
2022/01/06 04:34:00;;;;;;;3.95;1.15;;;18.10;49.80;;;;;;5047969;28;45119;-86
2022/01/06 04:36:27;;;;;;;3.53;1.30;;;18.00;49.20;;;;;;5045802;28;45323;-85
2022/01/06 04:38:54;;;;;;;4.00;1.60;;;18.00;50.00;;;;;;5046237;28;45450;-86
2022/01/06 04:41:21;;;;;;;3.75;1.50;;;18.00;50.20;;;;;;5053392;28;47922;-85
2022/01/06 04:43:49;;;;;;;3.22;1.55;;;18.00;49.90;;;;;;5041083;28;45505;-86
2022/01/06 04:46:16;;;;;;;2.92;1.15;;;18.00;49.90;;;;;;5039072;28;44754;-86
2022/01/06 04:48:45;;;;;;;2.97;0.98;;;18.00;49.70;;;;;;5043532;28;45133;-86
2022/01/06 04:51:12;;;;;;;3.72;1.52;;;18.00;50.00;;;;;;5054520;28;47995;-86
2022/01/06 04:53:39;;;;;;;3.30;1.40;;;18.00;50.00;;;;;;5051611;28;45582;-86
2022/01/06 04:56:06;;;;;;;2.65;1.15;;;18.00;49.80;;;;;;5038672;28;45410;-85
2022/01/06 04:58:34;;;;;;;5.00;1.50;;;18.00;49.30;;;;;;5052027;28;45098;-86
2022/01/06 05:01:01;;;;;;;3.58;1.25;;;18.00;50.20;;;;;;5058982;28;47247;-85
2022/01/06 05:03:29;;;;;;;4.15;1.10;;;18.00;51.10;;;;;;5047636;28;45189;-86
2022/01/06 05:05:57;;;;;;;3.15;1.20;;;18.00;51.00;;;;;;5057249;28;45213;-86
2022/01/06 05:08:26;;;;;;;2.97;1.25;;;18.00;50.60;;;;;;5046368;28;45359;-85
2022/01/06 05:10:54;;;;;;;3.45;1.30;;;18.00;50.70;;;;;;5050876;28;45446;-85
2022/01/06 05:13:22;;;;;;;6.40;1.40;;;18.00;50.70;;;;;;5040230;28;45357;-86
2022/01/06 05:15:49;;;;;;;4.13;1.30;;;18.00;50.60;;;;;;5230466;22;45516;-80
2022/01/06 05:18:16;;;;;;;2.67;1.30;;;18.00;50.00;;;;;;5063772;28;45387;-80
2022/01/06 05:20:43;;;;;;;3.17;1.20;;;18.00;49.10;;;;;;5048544;28;46272;-81
2022/01/06 05:23:12;;;;;;;3.47;1.20;;;18.00;49.20;;;;;;5051808;28;45415;-81
2022/01/06 05:25:39;;;;;;;3.78;1.10;;;18.00;49.60;;;;;;5053856;28;45122;-81
2022/01/06 05:28:06;;;;;;;7.22;1.50;;;18.00;49.10;;;;;;5062264;28;45209;-80
2022/01/06 05:30:33;;;;;;;5.80;1.42;;;18.00;49.80;;;;;;5051816;28;47617;-80
2022/01/06 05:33:00;;;;;;;2.70;1.20;;;18.00;49.20;;;;;;5059534;28;45479;-80
2022/01/06 05:35:27;;;;;;;3.00;1.20;;;18.00;49.90;;;;;;5059048;28;45295;-81
2022/01/06 05:37:54;;;;;;;2.53;1.10;;;18.00;49.00;;;;;;5065570;28;45235;-80
2022/01/06 05:40:22;;;;;;;2.97;1.13;;;18.00;48.50;;;;;;5063992;28;46574;-81
2022/01/06 05:42:49;;;;;;;4.55;1.60;;;18.00;48.50;;;;;;5070164;28;45172;-81
2022/01/06 05:45:17;;;;;;;4.60;1.23;;;18.00;48.50;;;;;;5052451;28;45245;-81
2022/01/06 05:47:44;;;;;;;5.55;1.52;;;18.00;48.80;;;;;;5060579;28;45466;-81
2022/01/06 05:50:11;;;;;;;4.30;1.23;;;18.00;50.00;;;;;;5059416;28;47112;-81
2022/01/06 05:52:38;;;;;;;4.50;1.70;;;18.00;50.50;;;;;;5055494;28;45135;-81
2022/01/06 05:55:05;;;;;;;3.58;1.50;;;18.00;50.20;;;;;;5052997;28;45289;-82
2022/01/06 05:57:33;;;;;;;4.65;1.60;;;18.10;50.10;;;;;;5061077;28;45427;-81
2022/01/06 06:00:00;;;;;;;3.33;1.50;;;18.00;50.50;;;;;;5057082;28;45454;-81
2022/01/06 06:02:27;;;;;;;3.55;1.60;;;18.00;50.60;;;;;;5057079;28;45296;-83
2022/01/06 06:04:54;;;;;;;3.60;1.30;;;17.90;50.20;;;;;;5062413;28;45283;-82
2022/01/06 06:07:21;;;;;;;4.32;1.50;;;17.90;49.80;;;;;;5068953;28;46817;-82
2022/01/06 06:09:48;;;;;;;6.20;1.70;;;17.90;49.50;;;;;;5063971;28;46796;-81
2022/01/06 06:12:15;;;;;;;5.18;1.50;;;17.80;49.60;;;;;;5062932;28;45363;-81
2022/01/06 06:14:43;;;;;;;3.35;1.33;;;17.80;49.50;;;;;;5055793;28;45400;-81
2022/01/06 06:17:10;;;;;;;5.65;1.67;;;17.80;49.30;;;;;;5060852;28;45226;-81
2022/01/06 06:19:37;;;;;;;2.78;1.35;;;17.80;49.80;;;;;;5057708;28;47868;-81
2022/01/06 06:22:04;;;;;;;5.05;1.40;;;17.80;49.10;;;;;;5058336;28;45143;-81
2022/01/06 06:24:31;;;;;;;3.70;1.35;;;17.80;48.90;;;;;;5059546;28;45200;-81
2022/01/06 06:26:58;;;;;;;3.08;1.25;;;17.80;49.00;;;;;;5065423;28;45086;-80
2022/01/06 06:29:25;;;;;;;4.28;1.30;;;17.80;49.00;;;;;;5059473;28;45994;-81
2022/01/06 06:31:53;;;;;;;3.90;1.17;;;17.80;48.80;;;;;;5060591;28;45401;-81
2022/01/06 06:34:19;;;;;;;4.82;1.27;;;17.80;49.30;;;;;;5055352;28;45157;-81
2022/01/06 06:36:46;;;;;;;4.28;1.27;;;17.80;49.60;;;;;;5062328;28;45669;-81
2022/01/06 06:39:13;;;;;;;5.22;1.38;;;17.90;50.10;;;;;;5060418;28;47023;-81
2022/01/06 06:41:40;;;;;;;4.07;1.27;;;17.90;49.40;;;;;;5050734;28;45234;-81
2022/01/06 06:44:07;;;;;;;3.92;1.55;;;17.90;49.50;;;;;;5062265;28;45405;-82
2022/01/06 06:46:34;;;;;;;2.75;1.15;;;17.90;49.70;;;;;;5062713;28;45983;-81
2022/01/06 06:49:02;;;;;;;4.82;1.70;;;17.90;49.70;;;;;;5061984;28;45386;-82
2022/01/06 06:51:29;;;;;;;3.45;1.30;;;17.90;49.30;;;;;;5051636;28;45385;-81
2022/01/06 06:53:56;;;;;;;3.15;1.23;;;17.80;48.70;;;;;;5056573;28;45217;-81
2022/01/06 06:56:23;;;;;;;3.65;1.35;;;17.80;48.40;;;;;;5064489;28;45208;-81
2022/01/06 06:58:50;;;;;;;3.95;1.55;;;17.80;48.30;;;;;;5062625;28;45750;-81
2022/01/06 07:01:17;;;;;;;2.80;1.40;;;17.80;48.00;;;;;;5071453;28;45298;-82
2022/01/06 07:03:43;;;;;;;4.50;1.50;;;17.80;47.90;;;;;;5063684;28;45284;-81
2022/01/06 07:06:12;;;;;;;3.08;1.30;;;17.80;47.70;;;;;;5050813;28;45173;-80
2022/01/06 07:08:39;;;;;;;4.72;1.48;;;17.80;47.50;;;;;;5046413;28;45185;-81
2022/01/06 07:11:05;;;;;;;3.35;1.10;;;17.80;47.60;;;;;;5065510;28;45136;-81
2022/01/06 07:13:32;;;;;;;4.15;1.48;;;17.80;47.80;;;;;;5064724;28;45283;-81
2022/01/06 07:15:59;;;;;;;4.82;1.42;;;17.70;47.60;;;;;;5050519;28;45335;-82
2022/01/06 07:18:26;;;;;;;3.55;1.20;;;17.70;48.20;;;;;;5057322;28;45225;-84
2022/01/06 07:20:52;;;;;;;6.60;1.42;;;17.70;48.70;;;;;;5062686;28;45174;-83
2022/01/06 07:23:21;;;;;;;4.00;1.30;;;17.70;49.40;;;;;;5063609;28;45401;-87
2022/01/06 07:25:48;;;;;;;2.72;1.10;;;17.80;49.30;;;;;;5073998;28;45275;-83
2022/01/06 07:28:15;;;;;;;4.78;1.30;;;17.90;50.00;;;;;;5064754;28;47667;-86
2022/01/06 07:30:42;;;;;;;3.08;1.08;;;17.90;51.40;;;;;;5061894;28;45268;-82
2022/01/06 07:33:09;;;;;;;3.60;1.38;;;17.90;50.40;;;;;;5058927;28;45747;-82
2022/01/06 07:35:36;;;;;;;2.40;1.35;;;17.90;50.40;;;;;;5066576;28;45495;-83
2022/01/06 07:38:03;;;;;;;4.32;1.55;;;18.00;50.80;;;;;;5057434;28;47024;-82
2022/01/06 07:40:31;;;;;;;2.97;1.27;;;17.90;50.80;;;;;;5058970;28;45305;-83
2022/01/06 07:42:58;;;;;;;2.72;1.20;;;17.90;51.10;;;;;;5057667;28;45514;-84
2022/01/06 07:45:25;;;;;;;3.17;1.13;;;17.90;51.30;;;;;;5060667;28;45186;-81
2022/01/06 07:47:56;;;;;;;3.35;1.52;;;17.90;51.50;;;;;;5058111;28;46186;-81
2022/01/06 07:50:25;;;;;;;3.55;1.40;;;17.90;50.60;;;;;;5054921;28;45557;-82
2022/01/06 07:52:52;;;;;;;3.25;1.40;;;18.00;50.30;;;;;;5056389;28;45360;-84
2022/01/06 07:55:19;;;;;;;4.57;1.45;;;17.90;50.40;;;;;;5060877;28;45431;-82
2022/01/06 07:57:47;;;;;;;3.47;1.60;;;17.90;50.90;;;;;;5055281;28;47010;-82
2022/01/06 08:00:15;;;;;;;3.40;1.20;;;18.00;52.20;;;;;;5060453;28;45315;-82
2022/01/06 08:02:42;;;;;;;2.90;1.10;;;18.00;52.20;;;;;;5055326;28;45420;-82
2022/01/06 08:05:12;;;;;;;1.83;0.98;;;18.00;52.20;;;;;;5056381;28;45268;-82
2022/01/06 08:07:39;;;;;;;2.55;1.10;;;18.00;52.30;;;;;;5069227;28;46387;-83
2022/01/06 08:10:07;;;;;;;2.45;1.23;;;18.00;52.20;;;;;;5054900;28;45352;-82
2022/01/06 08:12:34;;;;;;;2.65;1.10;;;18.00;52.20;;;;;;5059707;28;45801;-82
2022/01/06 08:15:02;;;;;;;4.28;1.42;;;18.00;52.20;;;;;;5056801;28;45208;-81
2022/01/06 08:17:29;;;;;;;4.13;1.08;;;18.00;52.20;;;;;;5052144;28;46278;-82
2022/01/06 08:19:56;;;;;;;4.43;1.58;;;18.00;52.30;;;;;;5051740;28;45402;-81
2022/01/06 08:22:23;;;;;;;1.92;1.15;;;18.00;52.20;;;;;;5049941;28;46048;-80
2022/01/06 08:24:52;;;;;;;3.92;1.10;;;18.00;52.30;;;;;;5047059;28;45769;-80
2022/01/06 08:27:18;;;;;;;2.50;1.20;;;18.00;53.20;;;;;;5048140;28;47576;-80
2022/01/06 08:29:45;;;;;;;2.97;1.10;;;18.00;52.30;;;;;;5052371;28;45369;-80
2022/01/06 08:32:13;;;;;;;3.30;1.20;;;18.00;52.80;;;;;;5064683;28;45174;-80
2022/01/06 08:34:40;;;;;;;3.13;1.40;;;18.00;52.70;;;;;;5064215;27;45369;-80
2022/01/06 08:37:07;;;;;;;3.95;1.52;;;18.00;52.90;;;;;;5056257;28;46470;-80
2022/01/06 08:39:34;;;;;;;4.00;1.30;;;18.00;53.20;;;;;;5054963;28;45425;-80
2022/01/06 08:42:00;;;;;;;2.17;0.90;;;18.00;53.00;;;;;;5056281;28;45139;-80
2022/01/06 08:44:28;;;;;;;3.85;1.15;;;18.00;53.30;;;;;;5061646;28;45200;-80
2022/01/06 08:46:58;;;;;;;2.10;1.13;;;18.00;52.90;;;;;;5059299;28;45371;-80
2022/01/06 08:49:26;;;;;;;3.17;1.48;;;18.00;53.10;;;;;;5054181;28;46438;-80
2022/01/06 08:51:53;;;;;;;3.88;1.42;;;18.00;53.30;;;;;;5061593;28;45150;-80
2022/01/06 08:54:20;;;;;;;2.92;1.20;;;18.00;53.30;;;;;;5059496;28;45476;-80
2022/01/06 08:56:47;;;;;;;4.63;1.15;;;18.00;53.30;;;;;;5062481;28;47750;-80
2022/01/06 08:59:15;;;;;;;2.45;1.30;;;18.00;53.50;;;;;;5067716;28;45685;-83
2022/01/06 09:01:42;;;;;;;2.92;1.35;;;18.00;53.30;;;;;;5068244;28;45109;-82
2022/01/06 09:04:09;;;;;;;4.00;1.23;;;18.00;53.40;;;;;;5054978;28;45543;-81
2022/01/06 09:06:37;;;;;;;2.63;1.40;;;18.00;53.20;;;;;;5054155;28;45506;-81
2022/01/06 09:09:04;;;;;;;2.40;1.33;;;18.00;53.10;;;;;;5057059;28;45810;-81
2022/01/06 09:11:31;;;;;;;2.67;1.35;;;18.00;53.10;;;;;;5057348;28;45396;-81
2022/01/06 09:13:58;;;;;;;5.68;1.70;;;17.90;53.20;;;;;;5052173;28;45192;-81
2022/01/06 09:16:25;;;;;;;2.00;1.23;;;17.90;53.20;;;;;;5055642;28;45321;-81
2022/01/06 09:18:51;;;;;;;3.78;1.65;;;17.90;53.60;;;;;;5068725;28;45225;-81
2022/01/06 09:21:22;;;;;;;2.33;1.23;;;17.90;53.60;;;;;;5063408;28;45269;-80
2022/01/06 09:23:51;;;;;;;2.53;1.23;;;17.90;53.30;;;;;;5058376;28;45381;-80
2022/01/06 09:26:18;;;;;;;3.38;1.30;;;17.90;53.60;;;;;;5055381;28;47929;-80
2022/01/06 09:28:46;;;;;;;4.55;1.33;;;17.90;53.40;;;;;;5064411;28;45598;-80
2022/01/06 09:31:12;;;;;;;3.00;1.50;;;17.90;53.50;;;;;;5060777;28;45243;-80
2022/01/06 09:33:39;;;;;;;4.22;1.75;;;17.90;53.70;;;;;;5069117;28;45223;-79
2022/01/06 09:36:06;;;;;;;2.88;1.42;;;17.90;53.80;;;;;;5070199;28;45976;-79
2022/01/06 09:38:33;;;;;;;6.18;1.27;;;17.90;53.70;;;;;;5062869;28;45820;-79
2022/01/06 09:41:05;;;;;;;3.47;1.17;;;17.90;53.70;;;;;;5050219;28;45177;-79
2022/01/06 09:43:34;;;;;;;3.25;1.45;;;17.90;53.90;;;;;;5067390;28;45420;-79
2022/01/06 09:46:03;;;;;;;3.95;1.40;;;17.90;53.70;;;;;;5058170;28;47115;-80
2022/01/06 09:48:31;;;;;;;3.53;1.50;;;18.00;53.70;;;;;;5048840;28;45646;-79
2022/01/06 09:50:58;;;;;;;2.85;1.33;;;18.00;53.80;;;;;;5049530;28;45220;-80
2022/01/06 09:53:26;;;;;;;3.83;1.30;;;18.00;54.00;;;;;;5057636;28;45200;-80
2022/01/06 09:55:53;;;;;;;3.97;1.23;;;18.00;54.00;;;;;;5069590;28;46525;-80
2022/01/06 09:58:25;;;;;;;2.45;1.27;;;18.00;54.00;;;;;;5069232;28;45178;-80
2022/01/06 10:00:55;;;;;;;2.60;1.23;;;18.00;53.80;;;;;;5060539;28;45447;-80
2022/01/06 10:03:22;;;;;;;3.72;1.48;;;17.90;53.10;;;;;;5063996;28;45282;-80
2022/01/06 10:05:50;;;;;;;4.80;1.75;;;17.90;53.20;;;;;;5051708;28;46614;-79
2022/01/06 10:08:29;;;;;;;3.35;1.42;;;17.90;53.10;;;;;;5051672;28;45316;-80
2022/01/06 10:11:09;;;;;;;2.95;1.15;;;17.90;53.20;;;;;;5050023;28;45335;-80
2022/01/06 10:13:38;;;;;;;2.10;1.10;;;17.90;53.00;;;;;;5059691;28;46031;-80
2022/01/06 10:16:16;;;;;;;2.28;1.20;;;17.90;53.70;;;;;;5062297;28;45562;-80
2022/01/06 10:18:54;;;;;;;3.55;1.23;;;17.90;53.40;;;;;;5065942;28;45542;-80
2022/01/06 10:21:22;;;;;;;3.75;1.13;;;17.90;53.40;;;;;;5056820;28;45275;-80
2022/01/06 10:24:02;;;;;;;2.78;1.10;;;17.90;53.70;;;;;;5051519;28;45518;-80
2022/01/06 10:26:29;;;;;;;3.38;1.05;;;17.90;53.70;;;;;;5067516;28;46225;-80
2022/01/06 10:28:57;;;;;;;5.00;1.50;;;17.90;53.80;;;;;;5057662;28;45393;-80
2022/01/06 10:31:26;;;;;;;3.30;1.17;;;17.80;53.80;;;;;;5058238;28;45212;-80
2022/01/06 10:33:53;;;;;;;3.15;1.35;;;17.90;54.20;;;;;;5053299;28;45304;-80
2022/01/06 10:36:27;;;;;;;3.30;1.17;;;17.90;54.20;;;;;;5056568;28;47394;-80
2022/01/06 10:38:54;;;;;;;3.50;1.23;;;17.90;54.40;;;;;;5059058;28;45544;-80
2022/01/06 10:41:21;;;;;;;3.58;1.63;;;17.90;54.40;;;;;;5053942;28;45429;-80
2022/01/06 10:43:52;;;;;;;2.72;1.20;;;17.90;54.30;;;;;;5060073;28;45475;-80
2022/01/06 10:46:32;;;;;;;3.88;1.52;;;17.90;54.00;;;;;;5052229;28;47432;-80
2022/01/06 10:49:01;;;;;;;3.17;1.30;;;17.90;55.10;;;;;;5057857;28;45413;-80
2022/01/06 10:51:37;;;;;;;3.03;1.63;;;17.90;53.70;;;;;;5051530;28;45342;-80
2022/01/06 10:54:05;;;;;;;4.32;1.30;;;17.90;53.70;;;;;;5050879;28;45200;-80
2022/01/06 10:56:32;;;;;;;2.05;1.20;;;17.90;54.30;;;;;;5048252;28;47556;-80
2022/01/06 10:58:59;;;;;;;3.00;1.25;;;17.90;54.50;;;;;;5051009;28;46169;-80
2022/01/06 11:01:27;;;;;;;3.00;1.27;;;17.90;54.40;;;;;;5052308;28;45496;-80
2022/01/06 11:03:55;;;;;;;3.35;1.27;;;17.90;54.60;;;;;;5055799;28;45513;-80
2022/01/06 11:06:22;;;;;;;3.08;1.30;;;17.90;54.70;;;;;;5055819;28;47704;-80
2022/01/06 11:08:51;;;;;;;3.28;1.10;;;17.80;54.80;;;;;;5059022;28;45428;-80
2022/01/06 11:11:31;;;;;;;2.90;1.48;;;17.90;54.80;;;;;;5060609;28;45475;-80
2022/01/06 11:13:58;;;;;;;4.03;1.48;;;17.90;54.50;;;;;;5064722;28;45150;-79
2022/01/06 11:16:25;;;;;;;4.15;1.15;;;17.90;54.60;;;;;;5058698;28;46215;-80
2022/01/06 11:18:55;;;;;;;2.50;1.08;;;17.90;54.80;;;;;;5056377;28;45145;-80
2022/01/06 11:21:33;;;;;;;1.73;0.95;;;17.90;54.80;;;;;;5059372;28;45281;-80
2022/01/06 11:24:05;;;;;;;4.07;1.20;;;17.90;54.80;;;;;;5055926;28;45433;-80
2022/01/06 11:26:32;;;;;;;3.22;1.27;;;17.90;55.10;;;;;;5056605;28;46271;-80
2022/01/06 11:29:01;;;;;;;2.03;1.13;;;18.00;55.10;;;;;;5062250;28;45906;-80
2022/01/06 11:31:30;;;;;;;3.80;1.33;;;18.00;55.20;;;;;;5060738;28;45198;-80
2022/01/06 11:33:58;;;;;;;2.15;1.00;;;17.90;55.10;;;;;;5054584;28;45438;-79
2022/01/06 11:36:29;;;;;;;2.22;1.23;;;17.90;55.00;;;;;;5066390;28;45221;-80
2022/01/06 11:38:57;;;;;;;2.97;1.45;;;17.90;54.80;;;;;;5055680;28;45515;-80
2022/01/06 11:41:31;;;;;;;1.75;1.13;;;17.90;54.70;;;;;;5048836;28;46013;-80
2022/01/06 11:43:58;;;;;;;2.78;1.10;;;17.90;54.70;;;;;;5048024;28;45415;-79
2022/01/06 11:46:25;;;;;;;2.70;1.20;;;17.90;54.70;;;;;;5047330;28;47362;-80
2022/01/06 11:48:53;;;;;;;2.47;1.02;;;17.90;54.70;;;;;;5054491;28;45249;-79
2022/01/06 11:51:27;;;;;;;4.43;1.58;;;17.90;54.80;;;;;;5052548;28;45198;-80
2022/01/06 11:53:54;;;;;;;2.75;1.30;;;17.90;54.70;;;;;;5052258;28;45224;-80
2022/01/06 11:56:22;;;;;;;3.83;1.38;;;17.90;54.50;;;;;;5051088;28;46408;-79
2022/01/06 11:58:58;;;;;;;2.75;1.05;;;17.90;54.90;;;;;;5047423;28;45212;-79
2022/01/06 12:01:25;;;;;;;3.78;1.35;;;17.90;55.40;;;;;;5059560;28;45584;-80
2022/01/06 12:03:52;;;;;;;2.67;1.30;;;17.90;55.50;;;;;;5058746;28;45323;-79
2022/01/06 12:06:26;;;;;;;3.22;1.02;;;17.90;55.50;;;;;;5054516;28;45358;-80
2022/01/06 12:08:53;;;;;;;2.85;1.00;;;18.00;55.50;;;;;;5043842;28;45303;-80
2022/01/06 12:11:22;;;;;;;2.97;1.25;;;18.00;55.40;;;;;;5060170;28;45387;-80
2022/01/06 12:13:51;;;;;;;4.72;1.38;;;18.00;55.20;;;;;;5059338;28;45458;-80
2022/01/06 12:16:25;;;;;;;2.72;1.38;;;18.00;55.20;;;;;;5057446;28;45673;-79
2022/01/06 12:18:52;;;;;;;1.73;1.10;;;18.00;54.80;;;;;;5058250;28;45350;-80
2022/01/06 12:21:19;;;;;;;4.18;1.40;;;18.00;54.80;;;;;;5057033;28;45158;-80
2022/01/06 12:23:48;;;;;;;4.43;1.30;;;18.00;55.10;;;;;;5057217;28;45183;-80
2022/01/06 12:26:15;;;;;;;3.83;1.30;;;17.90;55.40;;;;;;5049565;28;47560;-80
2022/01/06 12:28:47;;;;;;;3.30;1.20;;;17.90;55.50;;;;;;5050997;28;45271;-79
2022/01/06 12:31:22;;;;;;;2.72;1.27;;;17.90;55.20;;;;;;5055426;28;45377;-79
2022/01/06 12:33:49;;;;;;;3.35;1.10;;;17.90;55.80;;;;;;5053719;28;45357;-80
2022/01/06 12:36:18;;;;;;;3.17;1.30;;;17.90;55.90;;;;;;5051349;28;48092;-80
2022/01/06 12:38:46;;;;;;;3.38;1.00;;;17.90;56.10;;;;;;5052196;28;45817;-80
2022/01/06 12:41:16;;;;;;;3.78;1.30;;;17.90;56.30;;;;;;5049826;28;45197;-80
2022/01/06 12:43:44;;;;;;;2.63;1.25;;;17.90;56.40;;;;;;5052514;28;45500;-81
2022/01/06 12:46:13;;;;;;;3.38;1.27;;;17.90;56.50;;;;;;5062147;28;46319;-82
2022/01/06 12:48:42;;;;;;;2.75;1.35;;;17.80;56.30;;;;;;5059452;28;45540;-82
2022/01/06 12:51:11;;;;;;;2.58;1.10;;;17.80;56.40;;;;;;5056771;28;45239;-80
2022/01/06 12:53:43;;;;;;;2.67;1.13;;;17.90;56.30;;;;;;5057929;28;45181;-80
2022/01/06 12:56:22;;;;;;;3.95;1.23;;;17.90;56.30;;;;;;5056939;28;46233;-80
2022/01/06 12:58:49;;;;;;;3.08;1.25;;;17.90;56.30;;;;;;5052572;28;45517;-80
2022/01/06 13:01:16;;;;;;;4.13;1.35;;;17.90;56.20;;;;;;5050237;28;45853;-80
2022/01/06 13:03:49;;;;;;;3.33;1.27;;;17.90;55.90;;;;;;5058498;28;45387;-80